This is the latest recevied weather packets stored in our database for station/object W0AKY-13. If no packets are shown the sender has not sent any weather packets the latest 10 day(s).
| Time | Temp. | Humidity | Pressure | Rain* | Wind** | Luminosity | Snow |
|---|---|---|---|---|---|---|---|
| 1788626326 | 33.89° C | 61% | 1016.8 hPa | 0 mm | - | 487 W/m² | - |
| 1788626023 | 34.44° C | 61% | 1016.9 hPa | 0 mm | - | 479 W/m² | - |
| 1788625719 | 35° C | 58% | 1016.8 hPa | 0 mm | - | 471 W/m² | - |
| 1788625418 | 34.44° C | 60% | 1017 hPa | 0 mm | - | 461 W/m² | - |
| 1788625112 | 35° C | 59% | 1017 hPa | 0 mm | - | 451 W/m² | - |
| 1788624812 | 33.89° C | 60% | 1016.8 hPa | 0 mm | - | 441 W/m² | - |
| 1788624510 | 33.89° C | 61% | 1016.8 hPa | 0 mm | - | 430 W/m² | - |
| 1788624223 | 34.44° C | 63% | 1016.6 hPa | 0 mm | - | 419 W/m² | - |
| 1788623900 | 33.33° C | 62% | 1016.6 hPa | 0 mm | - | 408 W/m² | - |
| 1788623599 | 32.78° C | 62% | 1016.6 hPa | 0 mm | - | 397 W/m² | - |
| 1788623293 | 33.33° C | 60% | 1016.4 hPa | 0 mm | - | 391 W/m² | - |
| 1788622989 | 33.33° C | 62% | 1016.4 hPa | 0 mm | - | 377 W/m² | - |
| 1788622684 | 33.33° C | 63% | 1016.5 hPa | 0 mm | - | 365 W/m² | - |
| 1788622380 | 33.89° C | 61% | 1016.5 hPa | 0 mm | - | 314 W/m² | - |
| 1788622074 | 33.33° C | 60% | 1016.4 hPa | 0 mm | - | 343 W/m² | - |
| 1788621774 | 32.78° C | 62% | 1016.4 hPa | 0 mm | - | 331 W/m² | - |
| 1788621474 | 32.22° C | 64% | 1016.4 hPa | 0 mm | - | 319 W/m² | - |
| 1788621170 | 31.67° C | 65% | 1016.3 hPa | 0 mm | - | 308 W/m² | - |
| 1788620870 | 31.67° C | 65% | 1016.3 hPa | 0 mm | - | 298 W/m² | - |
| 1788620570 | 31.67° C | 66% | 1016.3 hPa | 0 mm | - | 285 W/m² | - |
| 1788620267 | 31.67° C | 66% | 1016.2 hPa | 0 mm | - | 273 W/m² | - |
| 1788619962 | 30.56° C | 68% | 1016.2 hPa | 0 mm | - | 262 W/m² | - |
| 1788619661 | 30.56° C | 70% | 1016.2 hPa | 0 mm | - | 250 W/m² | - |
| 1788619357 | 29.44° C | 72% | 1016.2 hPa | 0 mm | - | 238 W/m² | - |
| 1788619055 | 28.33° C | 75% | 1016.3 hPa | 0 mm | - | 224 W/m² | - |
* Rain latest hour (hover to see other rain measurements)
** Current wind speed in m/s (hover to see current wind gust speed)